sensor_id;sensor_type;location;lat;lon;timestamp;P1;durP1;ratioP1;P2;durP2;ratioP2
16784;SDS011;8509;52.178;5.404;2023-06-14T00:02:06;2.53;;;1.17;;
16784;SDS011;8509;52.178;5.404;2023-06-14T00:04:34;7.30;;;1.85;;
16784;SDS011;8509;52.178;5.404;2023-06-14T00:07:00;2.38;;;1.35;;
16784;SDS011;8509;52.178;5.404;2023-06-14T00:09:26;1.20;;;1.10;;
16784;SDS011;8509;52.178;5.404;2023-06-14T00:11:52;1.95;;;1.02;;
16784;SDS011;8509;52.178;5.404;2023-06-14T00:14:17;4.57;;;1.30;;
16784;SDS011;8509;52.178;5.404;2023-06-14T00:16:43;2.58;;;1.17;;
16784;SDS011;8509;52.178;5.404;2023-06-14T00:19:09;2.25;;;1.55;;
16784;SDS011;8509;52.178;5.404;2023-06-14T00:21:36;1.80;;;1.70;;
16784;SDS011;8509;52.178;5.404;2023-06-14T00:24:03;2.67;;;1.05;;
16784;SDS011;8509;52.178;5.404;2023-06-14T00:26:29;1.85;;;1.45;;
16784;SDS011;8509;52.178;5.404;2023-06-14T00:28:55;3.22;;;1.25;;
16784;SDS011;8509;52.178;5.404;2023-06-14T00:31:21;2.17;;;1.02;;
16784;SDS011;8509;52.178;5.404;2023-06-14T00:33:49;1.92;;;1.40;;
16784;SDS011;8509;52.178;5.404;2023-06-14T00:36:15;1.42;;;1.02;;
16784;SDS011;8509;52.178;5.404;2023-06-14T00:38:40;3.17;;;0.93;;
16784;SDS011;8509;52.178;5.404;2023-06-14T00:41:06;1.30;;;0.98;;
16784;SDS011;8509;52.178;5.404;2023-06-14T00:43:32;1.55;;;1.02;;
16784;SDS011;8509;52.178;5.404;2023-06-14T00:45:59;2.38;;;1.60;;
16784;SDS011;8509;52.178;5.404;2023-06-14T00:48:25;1.75;;;0.98;;
16784;SDS011;8509;52.178;5.404;2023-06-14T00:50:52;4.00;;;1.27;;
16784;SDS011;8509;52.178;5.404;2023-06-14T00:53:20;3.15;;;0.90;;
16784;SDS011;8509;52.178;5.404;2023-06-14T00:55:48;1.17;;;0.77;;
16784;SDS011;8509;52.178;5.404;2023-06-14T00:58:14;3.15;;;1.13;;
16784;SDS011;8509;52.178;5.404;2023-06-14T01:00:41;3.60;;;1.20;;
16784;SDS011;8509;52.178;5.404;2023-06-14T01:03:07;2.63;;;0.90;;
16784;SDS011;8509;52.178;5.404;2023-06-14T01:05:37;4.57;;;1.25;;
16784;SDS011;8509;52.178;5.404;2023-06-14T01:13:40;4.57;;;1.08;;
16784;SDS011;8509;52.178;5.404;2023-06-14T01:16:11;2.25;;;0.90;;
16784;SDS011;8509;52.178;5.404;2023-06-14T01:18:38;3.92;;;1.02;;
16784;SDS011;8509;52.178;5.404;2023-06-14T01:21:03;2.33;;;1.00;;
16784;SDS011;8509;52.178;5.404;2023-06-14T01:23:31;1.98;;;1.30;;
16784;SDS011;8509;52.178;5.404;2023-06-14T01:26:00;1.92;;;0.90;;
16784;SDS011;8509;52.178;5.404;2023-06-14T01:28:28;1.17;;;1.08;;
16784;SDS011;8509;52.178;5.404;2023-06-14T01:30:58;4.43;;;0.85;;
16784;SDS011;8509;52.178;5.404;2023-06-14T01:33:29;3.25;;;0.98;;
16784;SDS011;8509;52.178;5.404;2023-06-14T01:35:57;1.95;;;1.05;;
16784;SDS011;8509;52.178;5.404;2023-06-14T01:38:24;0.90;;;0.77;;
16784;SDS011;8509;52.178;5.404;2023-06-14T01:40:52;12.82;;;1.20;;
16784;SDS011;8509;52.178;5.404;2023-06-14T01:43:21;1.85;;;0.93;;
16784;SDS011;8509;52.178;5.404;2023-06-14T01:45:48;0.88;;;0.80;;
16784;SDS011;8509;52.178;5.404;2023-06-14T01:48:16;1.77;;;1.17;;
16784;SDS011;8509;52.178;5.404;2023-06-14T01:50:44;3.40;;;0.98;;
16784;SDS011;8509;52.178;5.404;2023-06-14T01:53:10;1.48;;;0.85;;
16784;SDS011;8509;52.178;5.404;2023-06-14T01:55:36;6.20;;;1.27;;
16784;SDS011;8509;52.178;5.404;2023-06-14T01:58:08;1.85;;;1.25;;
16784;SDS011;8509;52.178;5.404;2023-06-14T02:00:34;5.05;;;1.40;;
16784;SDS011;8509;52.178;5.404;2023-06-14T02:03:00;1.10;;;1.00;;
16784;SDS011;8509;52.178;5.404;2023-06-14T02:05:27;1.48;;;1.05;;
16784;SDS011;8509;52.178;5.404;2023-06-14T02:07:52;1.52;;;1.35;;
16784;SDS011;8509;52.178;5.404;2023-06-14T02:10:18;2.33;;;1.20;;
16784;SDS011;8509;52.178;5.404;2023-06-14T02:12:44;0.98;;;0.80;;
16784;SDS011;8509;52.178;5.404;2023-06-14T02:15:10;0.80;;;0.80;;
16784;SDS011;8509;52.178;5.404;2023-06-14T02:17:42;1.90;;;1.23;;
16784;SDS011;8509;52.178;5.404;2023-06-14T02:20:08;1.75;;;0.82;;
16784;SDS011;8509;52.178;5.404;2023-06-14T02:22:34;0.98;;;0.90;;
16784;SDS011;8509;52.178;5.404;2023-06-14T02:25:00;1.25;;;0.77;;
16784;SDS011;8509;52.178;5.404;2023-06-14T02:27:26;1.63;;;1.05;;
16784;SDS011;8509;52.178;5.404;2023-06-14T02:29:51;0.85;;;0.73;;
16784;SDS011;8509;52.178;5.404;2023-06-14T02:32:17;2.38;;;1.10;;
16784;SDS011;8509;52.178;5.404;2023-06-14T02:34:42;4.60;;;1.35;;
16784;SDS011;8509;52.178;5.404;2023-06-14T02:37:08;4.80;;;1.20;;
16784;SDS011;8509;52.178;5.404;2023-06-14T02:39:34;1.40;;;0.70;;
16784;SDS011;8509;52.178;5.404;2023-06-14T02:42:00;1.95;;;1.00;;
16784;SDS011;8509;52.178;5.404;2023-06-14T02:44:26;2.60;;;1.08;;
16784;SDS011;8509;52.178;5.404;2023-06-14T02:46:53;1.42;;;1.23;;
16784;SDS011;8509;52.178;5.404;2023-06-14T02:49:19;5.53;;;1.60;;
16784;SDS011;8509;52.178;5.404;2023-06-14T02:51:45;1.45;;;1.08;;
16784;SDS011;8509;52.178;5.404;2023-06-14T02:54:10;0.98;;;0.80;;
16784;SDS011;8509;52.178;5.404;2023-06-14T02:56:36;4.05;;;1.30;;
16784;SDS011;8509;52.178;5.404;2023-06-14T02:59:02;2.13;;;1.02;;
16784;SDS011;8509;52.178;5.404;2023-06-14T03:01:27;3.78;;;0.88;;
16784;SDS011;8509;52.178;5.404;2023-06-14T03:04:03;1.40;;;1.00;;
16784;SDS011;8509;52.178;5.404;2023-06-14T03:06:29;3.67;;;1.08;;
16784;SDS011;8509;52.178;5.404;2023-06-14T03:08:58;2.33;;;1.00;;
16784;SDS011;8509;52.178;5.404;2023-06-14T03:11:26;3.25;;;1.70;;
16784;SDS011;8509;52.178;5.404;2023-06-14T03:13:52;2.60;;;0.70;;
16784;SDS011;8509;52.178;5.404;2023-06-14T03:16:18;1.90;;;1.02;;
16784;SDS011;8509;52.178;5.404;2023-06-14T03:18:46;1.67;;;0.88;;
16784;SDS011;8509;52.178;5.404;2023-06-14T03:21:16;1.70;;;1.13;;
16784;SDS011;8509;52.178;5.404;2023-06-14T03:23:43;0.95;;;0.70;;
16784;SDS011;8509;52.178;5.404;2023-06-14T03:26:09;1.80;;;1.20;;
16784;SDS011;8509;52.178;5.404;2023-06-14T03:28:38;1.63;;;0.95;;
16784;SDS011;8509;52.178;5.404;2023-06-14T03:31:03;1.77;;;1.13;;
16784;SDS011;8509;52.178;5.404;2023-06-14T03:33:29;1.90;;;1.17;;
16784;SDS011;8509;52.178;5.404;2023-06-14T03:35:54;4.55;;;1.20;;
16784;SDS011;8509;52.178;5.404;2023-06-14T03:38:21;1.33;;;1.23;;
16784;SDS011;8509;52.178;5.404;2023-06-14T03:40:47;1.98;;;1.35;;
16784;SDS011;8509;52.178;5.404;2023-06-14T03:43:13;2.30;;;1.38;;
16784;SDS011;8509;52.178;5.404;2023-06-14T03:45:38;4.43;;;1.25;;
16784;SDS011;8509;52.178;5.404;2023-06-14T03:48:05;1.90;;;1.10;;
16784;SDS011;8509;52.178;5.404;2023-06-14T03:50:31;8.15;;;1.33;;
16784;SDS011;8509;52.178;5.404;2023-06-14T03:52:57;4.00;;;1.13;;
16784;SDS011;8509;52.178;5.404;2023-06-14T03:55:23;5.07;;;1.20;;
16784;SDS011;8509;52.178;5.404;2023-06-14T03:57:50;1.15;;;0.90;;
16784;SDS011;8509;52.178;5.404;2023-06-14T04:00:16;1.70;;;1.02;;
16784;SDS011;8509;52.178;5.404;2023-06-14T04:02:43;1.70;;;0.65;;
16784;SDS011;8509;52.178;5.404;2023-06-14T04:05:12;2.15;;;1.23;;
16784;SDS011;8509;52.178;5.404;2023-06-14T04:07:38;3.33;;;0.90;;
16784;SDS011;8509;52.178;5.404;2023-06-14T04:10:05;2.33;;;1.30;;
16784;SDS011;8509;52.178;5.404;2023-06-14T04:12:32;2.22;;;0.90;;
16784;SDS011;8509;52.178;5.404;2023-06-14T04:14:57;3.72;;;1.63;;
16784;SDS011;8509;52.178;5.404;2023-06-14T04:17:23;1.35;;;0.80;;
16784;SDS011;8509;52.178;5.404;2023-06-14T04:19:48;3.92;;;0.98;;
16784;SDS011;8509;52.178;5.404;2023-06-14T04:22:14;1.58;;;0.90;;
16784;SDS011;8509;52.178;5.404;2023-06-14T04:24:40;1.95;;;1.60;;
16784;SDS011;8509;52.178;5.404;2023-06-14T04:27:07;1.65;;;1.00;;
16784;SDS011;8509;52.178;5.404;2023-06-14T04:29:33;1.75;;;1.00;;
16784;SDS011;8509;52.178;5.404;2023-06-14T04:31:58;0.95;;;0.70;;
16784;SDS011;8509;52.178;5.404;2023-06-14T04:34:27;0.55;;;0.55;;
16784;SDS011;8509;52.178;5.404;2023-06-14T04:36:58;1.75;;;0.82;;
16784;SDS011;8509;52.178;5.404;2023-06-14T04:39:26;0.77;;;0.65;;
16784;SDS011;8509;52.178;5.404;2023-06-14T04:41:52;0.93;;;0.47;;
16784;SDS011;8509;52.178;5.404;2023-06-14T04:44:21;1.00;;;0.73;;
16784;SDS011;8509;52.178;5.404;2023-06-14T04:46:55;0.77;;;0.60;;
16784;SDS011;8509;52.178;5.404;2023-06-14T04:49:24;0.90;;;0.70;;
16784;SDS011;8509;52.178;5.404;2023-06-14T04:51:52;0.60;;;0.60;;
16784;SDS011;8509;52.178;5.404;2023-06-14T04:54:22;1.15;;;1.05;;
16784;SDS011;8509;52.178;5.404;2023-06-14T04:56:49;0.88;;;0.65;;
16784;SDS011;8509;52.178;5.404;2023-06-14T04:59:15;1.27;;;1.17;;
16784;SDS011;8509;52.178;5.404;2023-06-14T05:01:42;1.25;;;1.08;;
16784;SDS011;8509;52.178;5.404;2023-06-14T05:04:12;2.03;;;1.15;;
16784;SDS011;8509;52.178;5.404;2023-06-14T05:06:38;1.67;;;0.60;;
16784;SDS011;8509;52.178;5.404;2023-06-14T05:09:04;3.13;;;0.73;;
16784;SDS011;8509;52.178;5.404;2023-06-14T05:11:30;3.92;;;1.67;;
16784;SDS011;8509;52.178;5.404;2023-06-14T05:13:55;1.45;;;0.52;;
16784;SDS011;8509;52.178;5.404;2023-06-14T05:16:23;0.60;;;0.60;;
16784;SDS011;8509;52.178;5.404;2023-06-14T05:18:50;1.15;;;0.70;;
16784;SDS011;8509;52.178;5.404;2023-06-14T05:21:17;1.67;;;0.90;;
16784;SDS011;8509;52.178;5.404;2023-06-14T05:23:43;0.77;;;0.75;;
16784;SDS011;8509;52.178;5.404;2023-06-14T05:26:12;0.93;;;0.73;;
16784;SDS011;8509;52.178;5.404;2023-06-14T05:28:45;0.52;;;0.52;;
16784;SDS011;8509;52.178;5.404;2023-06-14T05:31:11;2.38;;;0.50;;
16784;SDS011;8509;52.178;5.404;2023-06-14T05:33:36;0.55;;;0.55;;
16784;SDS011;8509;52.178;5.404;2023-06-14T05:36:02;2.67;;;0.50;;
16784;SDS011;8509;52.178;5.404;2023-06-14T05:38:28;0.85;;;0.80;;
16784;SDS011;8509;52.178;5.404;2023-06-14T05:40:53;0.50;;;0.50;;
16784;SDS011;8509;52.178;5.404;2023-06-14T05:43:19;0.75;;;0.57;;
16784;SDS011;8509;52.178;5.404;2023-06-14T05:45:44;0.40;;;0.40;;
16784;SDS011;8509;52.178;5.404;2023-06-14T05:48:10;0.65;;;0.63;;
16784;SDS011;8509;52.178;5.404;2023-06-14T05:50:36;1.15;;;0.70;;
16784;SDS011;8509;52.178;5.404;2023-06-14T05:53:02;0.63;;;0.63;;
16784;SDS011;8509;52.178;5.404;2023-06-14T05:55:27;0.98;;;0.60;;
16784;SDS011;8509;52.178;5.404;2023-06-14T05:57:54;0.40;;;0.40;;
16784;SDS011;8509;52.178;5.404;2023-06-14T06:00:19;0.45;;;0.45;;
16784;SDS011;8509;52.178;5.404;2023-06-14T06:02:45;0.68;;;0.68;;
16784;SDS011;8509;52.178;5.404;2023-06-14T06:05:12;0.32;;;0.32;;
16784;SDS011;8509;52.178;5.404;2023-06-14T06:07:39;0.52;;;0.52;;
16784;SDS011;8509;52.178;5.404;2023-06-14T06:10:10;0.50;;;0.50;;
16784;SDS011;8509;52.178;5.404;2023-06-14T06:12:36;2.28;;;1.30;;
16784;SDS011;8509;52.178;5.404;2023-06-14T06:15:02;0.88;;;0.77;;
16784;SDS011;8509;52.178;5.404;2023-06-14T06:17:28;0.52;;;0.52;;
16784;SDS011;8509;52.178;5.404;2023-06-14T06:19:54;0.45;;;0.45;;
16784;SDS011;8509;52.178;5.404;2023-06-14T06:22:20;0.45;;;0.45;;
16784;SDS011;8509;52.178;5.404;2023-06-14T06:24:45;5.57;;;1.05;;
16784;SDS011;8509;52.178;5.404;2023-06-14T06:27:12;1.00;;;0.75;;
16784;SDS011;8509;52.178;5.404;2023-06-14T06:29:37;1.48;;;0.95;;
16784;SDS011;8509;52.178;5.404;2023-06-14T06:32:03;0.50;;;0.50;;
16784;SDS011;8509;52.178;5.404;2023-06-14T06:34:30;0.50;;;0.50;;
16784;SDS011;8509;52.178;5.404;2023-06-14T06:36:55;0.77;;;0.70;;
16784;SDS011;8509;52.178;5.404;2023-06-14T06:39:21;0.50;;;0.50;;
16784;SDS011;8509;52.178;5.404;2023-06-14T06:41:46;1.33;;;0.55;;
16784;SDS011;8509;52.178;5.404;2023-06-14T06:44:12;4.25;;;0.68;;
16784;SDS011;8509;52.178;5.404;2023-06-14T06:46:38;0.88;;;0.80;;
16784;SDS011;8509;52.178;5.404;2023-06-14T06:49:07;1.13;;;1.02;;
16784;SDS011;8509;52.178;5.404;2023-06-14T06:51:34;0.40;;;0.40;;
16784;SDS011;8509;52.178;5.404;2023-06-14T06:54:01;0.70;;;0.70;;
16784;SDS011;8509;52.178;5.404;2023-06-14T06:56:27;0.45;;;0.45;;
16784;SDS011;8509;52.178;5.404;2023-06-14T06:58:53;1.30;;;0.82;;
16784;SDS011;8509;52.178;5.404;2023-06-14T07:01:18;0.70;;;0.70;;
16784;SDS011;8509;52.178;5.404;2023-06-14T07:03:45;0.73;;;0.65;;
16784;SDS011;8509;52.178;5.404;2023-06-14T07:06:11;1.42;;;0.82;;
16784;SDS011;8509;52.178;5.404;2023-06-14T07:08:36;0.82;;;0.80;;
16784;SDS011;8509;52.178;5.404;2023-06-14T07:11:04;0.98;;;0.93;;
16784;SDS011;8509;52.178;5.404;2023-06-14T07:13:30;0.70;;;0.70;;
16784;SDS011;8509;52.178;5.404;2023-06-14T07:16:00;1.85;;;0.80;;
16784;SDS011;8509;52.178;5.404;2023-06-14T07:18:26;5.47;;;0.77;;
16784;SDS011;8509;52.178;5.404;2023-06-14T07:20:52;0.57;;;0.57;;
16784;SDS011;8509;52.178;5.404;2023-06-14T07:23:19;0.60;;;0.60;;
16784;SDS011;8509;52.178;5.404;2023-06-14T07:25:45;0.52;;;0.52;;
16784;SDS011;8509;52.178;5.404;2023-06-14T07:28:11;0.90;;;0.50;;
16784;SDS011;8509;52.178;5.404;2023-06-14T07:30:37;1.73;;;1.20;;
16784;SDS011;8509;52.178;5.404;2023-06-14T07:33:03;0.73;;;0.73;;
16784;SDS011;8509;52.178;5.404;2023-06-14T07:35:28;0.73;;;0.73;;
16784;SDS011;8509;52.178;5.404;2023-06-14T07:37:54;0.40;;;0.40;;
16784;SDS011;8509;52.178;5.404;2023-06-14T07:40:20;0.57;;;0.57;;
16784;SDS011;8509;52.178;5.404;2023-06-14T07:42:45;0.43;;;0.43;;
16784;SDS011;8509;52.178;5.404;2023-06-14T07:45:13;0.38;;;0.38;;
16784;SDS011;8509;52.178;5.404;2023-06-14T07:47:39;0.88;;;0.82;;
16784;SDS011;8509;52.178;5.404;2023-06-14T07:50:05;0.38;;;0.38;;
16784;SDS011;8509;52.178;5.404;2023-06-14T07:52:31;0.50;;;0.50;;
16784;SDS011;8509;52.178;5.404;2023-06-14T07:54:56;0.73;;;0.73;;
16784;SDS011;8509;52.178;5.404;2023-06-14T07:57:24;0.65;;;0.65;;
16784;SDS011;8509;52.178;5.404;2023-06-14T07:59:49;0.50;;;0.50;;
16784;SDS011;8509;52.178;5.404;2023-06-14T08:02:15;0.47;;;0.47;;
16784;SDS011;8509;52.178;5.404;2023-06-14T08:04:41;0.73;;;0.60;;
16784;SDS011;8509;52.178;5.404;2023-06-14T08:07:07;0.45;;;0.45;;
16784;SDS011;8509;52.178;5.404;2023-06-14T08:09:33;0.30;;;0.30;;
16784;SDS011;8509;52.178;5.404;2023-06-14T08:11:59;0.50;;;0.50;;
16784;SDS011;8509;52.178;5.404;2023-06-14T08:14:25;0.40;;;0.40;;
16784;SDS011;8509;52.178;5.404;2023-06-14T08:16:51;0.70;;;0.60;;
16784;SDS011;8509;52.178;5.404;2023-06-14T08:19:16;0.30;;;0.30;;
16784;SDS011;8509;52.178;5.404;2023-06-14T08:21:43;0.70;;;0.60;;
16784;SDS011;8509;52.178;5.404;2023-06-14T08:24:10;0.38;;;0.38;;
16784;SDS011;8509;52.178;5.404;2023-06-14T08:26:37;0.70;;;0.70;;
16784;SDS011;8509;52.178;5.404;2023-06-14T08:29:04;0.28;;;0.28;;
16784;SDS011;8509;52.178;5.404;2023-06-14T08:31:30;0.30;;;0.30;;
16784;SDS011;8509;52.178;5.404;2023-06-14T08:33:56;0.30;;;0.30;;
16784;SDS011;8509;52.178;5.404;2023-06-14T08:36:22;0.70;;;0.57;;
16784;SDS011;8509;52.178;5.404;2023-06-14T08:38:49;0.20;;;0.20;;
16784;SDS011;8509;52.178;5.404;2023-06-14T08:41:19;0.40;;;0.40;;
16784;SDS011;8509;52.178;5.404;2023-06-14T08:43:47;0.85;;;0.85;;
16784;SDS011;8509;52.178;5.404;2023-06-14T08:46:12;0.47;;;0.40;;
16784;SDS011;8509;52.178;5.404;2023-06-14T08:48:45;0.30;;;0.30;;
16784;SDS011;8509;52.178;5.404;2023-06-14T08:51:15;0.60;;;0.43;;
16784;SDS011;8509;52.178;5.404;2023-06-14T08:53:44;1.92;;;1.13;;
16784;SDS011;8509;52.178;5.404;2023-06-14T08:56:11;0.38;;;0.38;;
16784;SDS011;8509;52.178;5.404;2023-06-14T08:58:47;0.40;;;0.40;;
16784;SDS011;8509;52.178;5.404;2023-06-14T09:01:14;0.55;;;0.50;;
16784;SDS011;8509;52.178;5.404;2023-06-14T09:03:42;0.60;;;0.60;;
16784;SDS011;8509;52.178;5.404;2023-06-14T09:06:09;1.02;;;0.98;;
16784;SDS011;8509;52.178;5.404;2023-06-14T09:08:42;0.40;;;0.40;;
16784;SDS011;8509;52.178;5.404;2023-06-14T09:11:12;0.57;;;0.50;;
16784;SDS011;8509;52.178;5.404;2023-06-14T09:13:39;0.40;;;0.40;;
16784;SDS011;8509;52.178;5.404;2023-06-14T09:16:06;0.30;;;0.30;;
16784;SDS011;8509;52.178;5.404;2023-06-14T09:18:42;0.40;;;0.40;;
16784;SDS011;8509;52.178;5.404;2023-06-14T09:21:09;0.30;;;0.30;;
16784;SDS011;8509;52.178;5.404;2023-06-14T09:23:37;0.40;;;0.40;;
16784;SDS011;8509;52.178;5.404;2023-06-14T09:26:11;0.32;;;0.32;;
16784;SDS011;8509;52.178;5.404;2023-06-14T09:28:41;0.40;;;0.40;;
16784;SDS011;8509;52.178;5.404;2023-06-14T09:31:14;0.40;;;0.40;;
16784;SDS011;8509;52.178;5.404;2023-06-14T09:33:44;3.53;;;0.88;;
16784;SDS011;8509;52.178;5.404;2023-06-14T09:36:18;0.52;;;0.40;;
16784;SDS011;8509;52.178;5.404;2023-06-14T09:38:54;0.68;;;0.50;;
16784;SDS011;8509;52.178;5.404;2023-06-14T09:41:40;0.30;;;0.30;;
16784;SDS011;8509;52.178;5.404;2023-06-14T09:44:07;0.50;;;0.50;;
16784;SDS011;8509;52.178;5.404;2023-06-14T09:46:35;0.40;;;0.40;;
16784;SDS011;8509;52.178;5.404;2023-06-14T09:49:02;2.40;;;0.60;;
16784;SDS011;8509;52.178;5.404;2023-06-14T09:51:30;0.20;;;0.20;;
16784;SDS011;8509;52.178;5.404;2023-06-14T09:54:00;0.30;;;0.30;;
16784;SDS011;8509;52.178;5.404;2023-06-14T09:56:29;0.30;;;0.30;;
16784;SDS011;8509;52.178;5.404;2023-06-14T09:58:56;0.85;;;0.55;;
16784;SDS011;8509;52.178;5.404;2023-06-14T10:01:23;0.40;;;0.40;;
16784;SDS011;8509;52.178;5.404;2023-06-14T10:04:02;0.32;;;0.32;;
16784;SDS011;8509;52.178;5.404;2023-06-14T10:06:29;0.28;;;0.28;;
16784;SDS011;8509;52.178;5.404;2023-06-14T10:08:56;0.63;;;0.60;;
16784;SDS011;8509;52.178;5.404;2023-06-14T10:11:26;0.90;;;0.50;;
16784;SDS011;8509;52.178;5.404;2023-06-14T10:13:55;0.40;;;0.40;;
16784;SDS011;8509;52.178;5.404;2023-06-14T10:16:24;0.40;;;0.40;;
16784;SDS011;8509;52.178;5.404;2023-06-14T10:19:13;0.30;;;0.30;;
16784;SDS011;8509;52.178;5.404;2023-06-14T10:22:00;0.30;;;0.30;;
16784;SDS011;8509;52.178;5.404;2023-06-14T10:24:38;0.50;;;0.50;;
16784;SDS011;8509;52.178;5.404;2023-06-14T10:27:09;0.30;;;0.30;;
16784;SDS011;8509;52.178;5.404;2023-06-14T10:32:20;0.50;;;0.50;;
16784;SDS011;8509;52.178;5.404;2023-06-14T10:34:53;0.52;;;0.40;;
16784;SDS011;8509;52.178;5.404;2023-06-14T10:37:21;0.35;;;0.35;;
16784;SDS011;8509;52.178;5.404;2023-06-14T10:39:46;1.05;;;0.57;;
16784;SDS011;8509;52.178;5.404;2023-06-14T10:42:13;0.40;;;0.40;;
16784;SDS011;8509;52.178;5.404;2023-06-14T10:44:40;0.30;;;0.30;;
16784;SDS011;8509;52.178;5.404;2023-06-14T10:47:10;0.32;;;0.32;;
16784;SDS011;8509;52.178;5.404;2023-06-14T10:49:54;0.50;;;0.40;;
16784;SDS011;8509;52.178;5.404;2023-06-14T10:52:22;0.30;;;0.30;;
16784;SDS011;8509;52.178;5.404;2023-06-14T10:57:49;1.77;;;0.82;;
16784;SDS011;8509;52.178;5.404;2023-06-14T11:00:21;0.40;;;0.40;;
16784;SDS011;8509;52.178;5.404;2023-06-14T11:02:51;0.35;;;0.35;;
16784;SDS011;8509;52.178;5.404;2023-06-14T11:11:05;0.40;;;0.40;;
16784;SDS011;8509;52.178;5.404;2023-06-14T11:13:32;0.70;;;0.70;;
16784;SDS011;8509;52.178;5.404;2023-06-14T11:15:58;0.50;;;0.50;;
16784;SDS011;8509;52.178;5.404;2023-06-14T11:18:24;0.30;;;0.30;;
16784;SDS011;8509;52.178;5.404;2023-06-14T11:20:52;0.20;;;0.20;;
16784;SDS011;8509;52.178;5.404;2023-06-14T11:23:18;0.45;;;0.45;;
16784;SDS011;8509;52.178;5.404;2023-06-14T11:25:49;0.30;;;0.30;;
16784;SDS011;8509;52.178;5.404;2023-06-14T11:28:16;0.55;;;0.55;;
16784;SDS011;8509;52.178;5.404;2023-06-14T11:30:42;0.40;;;0.40;;
16784;SDS011;8509;52.178;5.404;2023-06-14T11:33:09;0.40;;;0.40;;
16784;SDS011;8509;52.178;5.404;2023-06-14T11:35:36;0.30;;;0.30;;
16784;SDS011;8509;52.178;5.404;2023-06-14T11:38:02;0.47;;;0.47;;
16784;SDS011;8509;52.178;5.404;2023-06-14T11:40:27;0.40;;;0.40;;
16784;SDS011;8509;52.178;5.404;2023-06-14T11:43:00;0.45;;;0.43;;
16784;SDS011;8509;52.178;5.404;2023-06-14T11:45:27;0.40;;;0.40;;
16784;SDS011;8509;52.178;5.404;2023-06-14T11:47:54;0.50;;;0.47;;
16784;SDS011;8509;52.178;5.404;2023-06-14T11:50:24;0.28;;;0.28;;
16784;SDS011;8509;52.178;5.404;2023-06-14T11:52:57;7.00;;;1.10;;
16784;SDS011;8509;52.178;5.404;2023-06-14T11:55:38;0.30;;;0.30;;
16784;SDS011;8509;52.178;5.404;2023-06-14T11:58:05;0.20;;;0.20;;
16784;SDS011;8509;52.178;5.404;2023-06-14T12:00:31;0.50;;;0.50;;
16784;SDS011;8509;52.178;5.404;2023-06-14T12:02:57;0.32;;;0.32;;
16784;SDS011;8509;52.178;5.404;2023-06-14T12:05:24;0.45;;;0.40;;
16784;SDS011;8509;52.178;5.404;2023-06-14T12:07:57;0.52;;;0.52;;
16784;SDS011;8509;52.178;5.404;2023-06-14T12:10:24;0.22;;;0.22;;
16784;SDS011;8509;52.178;5.404;2023-06-14T12:12:51;0.28;;;0.28;;
16784;SDS011;8509;52.178;5.404;2023-06-14T12:17:48;0.35;;;0.35;;
16784;SDS011;8509;52.178;5.404;2023-06-14T12:20:15;0.77;;;0.70;;
16784;SDS011;8509;52.178;5.404;2023-06-14T12:22:54;1.08;;;0.38;;
16784;SDS011;8509;52.178;5.404;2023-06-14T12:25:31;0.45;;;0.45;;
16784;SDS011;8509;52.178;5.404;2023-06-14T12:27:59;0.35;;;0.35;;
16784;SDS011;8509;52.178;5.404;2023-06-14T12:30:33;0.30;;;0.30;;
16784;SDS011;8509;52.178;5.404;2023-06-14T12:33:00;0.45;;;0.45;;
16784;SDS011;8509;52.178;5.404;2023-06-14T12:35:26;0.80;;;0.80;;
16784;SDS011;8509;52.178;5.404;2023-06-14T12:37:52;0.70;;;0.55;;
16784;SDS011;8509;52.178;5.404;2023-06-14T12:40:18;0.50;;;0.40;;
16784;SDS011;8509;52.178;5.404;2023-06-14T12:42:44;0.47;;;0.47;;
16784;SDS011;8509;52.178;5.404;2023-06-14T12:45:12;0.32;;;0.32;;
16784;SDS011;8509;52.178;5.404;2023-06-14T12:47:37;0.38;;;0.38;;
16784;SDS011;8509;52.178;5.404;2023-06-14T12:50:03;0.38;;;0.38;;
16784;SDS011;8509;52.178;5.404;2023-06-14T12:52:29;0.38;;;0.32;;
16784;SDS011;8509;52.178;5.404;2023-06-14T12:54:55;0.30;;;0.30;;
16784;SDS011;8509;52.178;5.404;2023-06-14T12:57:21;0.20;;;0.20;;
16784;SDS011;8509;52.178;5.404;2023-06-14T12:59:46;0.55;;;0.55;;
16784;SDS011;8509;52.178;5.404;2023-06-14T13:02:15;0.60;;;0.60;;
16784;SDS011;8509;52.178;5.404;2023-06-14T13:04:42;0.30;;;0.30;;
16784;SDS011;8509;52.178;5.404;2023-06-14T13:07:08;3.08;;;0.35;;
16784;SDS011;8509;52.178;5.404;2023-06-14T13:09:35;0.40;;;0.40;;
16784;SDS011;8509;52.178;5.404;2023-06-14T13:12:01;0.30;;;0.30;;
16784;SDS011;8509;52.178;5.404;2023-06-14T13:14:27;0.40;;;0.40;;
16784;SDS011;8509;52.178;5.404;2023-06-14T13:16:55;0.60;;;0.60;;
16784;SDS011;8509;52.178;5.404;2023-06-14T13:19:21;0.30;;;0.30;;
16784;SDS011;8509;52.178;5.404;2023-06-14T13:21:47;0.65;;;0.65;;
16784;SDS011;8509;52.178;5.404;2023-06-14T13:24:13;0.22;;;0.22;;
16784;SDS011;8509;52.178;5.404;2023-06-14T13:26:38;0.55;;;0.40;;
16784;SDS011;8509;52.178;5.404;2023-06-14T13:29:04;3.40;;;0.38;;
16784;SDS011;8509;52.178;5.404;2023-06-14T13:31:30;0.32;;;0.32;;
16784;SDS011;8509;52.178;5.404;2023-06-14T13:33:55;1.95;;;0.50;;
16784;SDS011;8509;52.178;5.404;2023-06-14T13:36:21;0.40;;;0.40;;
16784;SDS011;8509;52.178;5.404;2023-06-14T13:38:47;0.40;;;0.40;;
16784;SDS011;8509;52.178;5.404;2023-06-14T13:41:13;0.40;;;0.40;;
16784;SDS011;8509;52.178;5.404;2023-06-14T13:43:38;0.40;;;0.40;;
16784;SDS011;8509;52.178;5.404;2023-06-14T13:46:04;0.28;;;0.28;;
16784;SDS011;8509;52.178;5.404;2023-06-14T13:48:30;0.30;;;0.30;;
16784;SDS011;8509;52.178;5.404;2023-06-14T13:50:55;5.13;;;1.35;;
16784;SDS011;8509;52.178;5.404;2023-06-14T13:53:22;0.40;;;0.40;;
16784;SDS011;8509;52.178;5.404;2023-06-14T13:55:47;0.40;;;0.40;;
16784;SDS011;8509;52.178;5.404;2023-06-14T13:58:13;0.45;;;0.40;;
16784;SDS011;8509;52.178;5.404;2023-06-14T14:00:40;0.35;;;0.35;;
16784;SDS011;8509;52.178;5.404;2023-06-14T14:03:06;0.57;;;0.45;;
16784;SDS011;8509;52.178;5.404;2023-06-14T14:05:31;0.60;;;0.50;;
16784;SDS011;8509;52.178;5.404;2023-06-14T14:07:57;0.60;;;0.30;;
16784;SDS011;8509;52.178;5.404;2023-06-14T14:10:24;3.30;;;0.57;;
16784;SDS011;8509;52.178;5.404;2023-06-14T14:12:50;0.30;;;0.30;;
16784;SDS011;8509;52.178;5.404;2023-06-14T14:15:16;0.40;;;0.40;;
16784;SDS011;8509;52.178;5.404;2023-06-14T14:17:42;0.28;;;0.28;;
16784;SDS011;8509;52.178;5.404;2023-06-14T14:20:08;0.45;;;0.40;;
16784;SDS011;8509;52.178;5.404;2023-06-14T14:22:36;0.30;;;0.30;;
16784;SDS011;8509;52.178;5.404;2023-06-14T14:25:02;0.30;;;0.30;;
16784;SDS011;8509;52.178;5.404;2023-06-14T14:27:28;0.60;;;0.60;;
16784;SDS011;8509;52.178;5.404;2023-06-14T14:29:53;0.45;;;0.45;;
16784;SDS011;8509;52.178;5.404;2023-06-14T14:32:19;0.30;;;0.30;;
16784;SDS011;8509;52.178;5.404;2023-06-14T14:34:45;0.40;;;0.40;;
16784;SDS011;8509;52.178;5.404;2023-06-14T14:37:10;0.25;;;0.25;;
16784;SDS011;8509;52.178;5.404;2023-06-14T14:39:36;0.40;;;0.40;;
16784;SDS011;8509;52.178;5.404;2023-06-14T14:42:02;0.60;;;0.50;;
16784;SDS011;8509;52.178;5.404;2023-06-14T14:44:28;0.30;;;0.30;;
16784;SDS011;8509;52.178;5.404;2023-06-14T14:46:53;0.30;;;0.30;;
16784;SDS011;8509;52.178;5.404;2023-06-14T14:49:19;0.20;;;0.20;;
16784;SDS011;8509;52.178;5.404;2023-06-14T14:51:45;0.40;;;0.40;;
16784;SDS011;8509;52.178;5.404;2023-06-14T14:54:11;0.52;;;0.52;;
16784;SDS011;8509;52.178;5.404;2023-06-14T14:56:36;0.40;;;0.40;;
16784;SDS011;8509;52.178;5.404;2023-06-14T14:59:03;0.55;;;0.45;;
16784;SDS011;8509;52.178;5.404;2023-06-14T15:01:29;0.32;;;0.32;;
16784;SDS011;8509;52.178;5.404;2023-06-14T15:03:54;0.22;;;0.22;;
16784;SDS011;8509;52.178;5.404;2023-06-14T15:06:20;0.40;;;0.40;;
16784;SDS011;8509;52.178;5.404;2023-06-14T15:08:46;0.45;;;0.45;;
16784;SDS011;8509;52.178;5.404;2023-06-14T15:11:11;0.73;;;0.40;;
16784;SDS011;8509;52.178;5.404;2023-06-14T15:13:37;0.60;;;0.47;;
16784;SDS011;8509;52.178;5.404;2023-06-14T15:16:03;0.20;;;0.20;;
16784;SDS011;8509;52.178;5.404;2023-06-14T15:18:28;0.40;;;0.40;;
16784;SDS011;8509;52.178;5.404;2023-06-14T15:20:54;0.40;;;0.40;;